Time;durP1;ratioP1;P1;durP2;ratioP2;P2;SDS_P1;SDS_P2;PMS_P1;PMS_P2;Temp;Humidity;BMP_temperature;BMP_pressure;BME280_temperature;BME280_humidity;BME280_pressure;Samples;Min_cycle;Max_cycle;Signal;HPM_P1;HPM_P2
2023/01/04 00:00:21;;;;;;;3.57;2.40;;;;;;;3.37;95.61;96690.63;4997173;28;20200;-84
2023/01/04 00:02:46;;;;;;;4.30;2.37;;;;;;;3.25;95.48;96681.75;5010857;28;20650;-84
2023/01/04 00:05:11;;;;;;;4.03;2.80;;;;;;;3.28;95.48;96681.63;5008084;28;20304;-83
2023/01/04 00:07:36;;;;;;;3.87;2.57;;;;;;;3.23;95.08;96673.31;5011884;28;20268;-85
2023/01/04 00:10:02;;;;;;;3.40;2.60;;;;;;;3.30;95.73;96679.81;5012751;28;20189;-83
2023/01/04 00:12:27;;;;;;;4.20;2.40;;;;;;;3.24;95.07;96676.72;4996778;28;20263;-83
2023/01/04 00:14:53;;;;;;;3.37;3.07;;;;;;;3.21;95.40;96680.25;4991459;28;20195;-84
2023/01/04 00:17:18;;;;;;;5.50;2.80;;;;;;;3.24;96.14;96672.41;4997764;28;20235;-83
2023/01/04 00:19:43;;;;;;;4.93;2.70;;;;;;;3.25;95.87;96666.34;4995494;28;20189;-85
2023/01/04 00:22:09;;;;;;;4.60;3.07;;;;;;;3.28;95.80;96662.84;4990068;28;20266;-85
2023/01/04 00:24:34;;;;;;;4.87;2.70;;;;;;;3.26;95.08;96656.91;4983585;28;20195;-82
2023/01/04 00:26:59;;;;;;;6.00;3.20;;;;;;;3.23;95.52;96663.03;5002349;28;20191;-85
2023/01/04 00:29:25;;;;;;;4.37;2.80;;;;;;;3.16;94.53;96658.28;5009045;28;20209;-83
2023/01/04 00:31:50;;;;;;;3.97;2.80;;;;;;;3.15;94.79;96664.31;4991451;28;20207;-85
2023/01/04 00:34:16;;;;;;;4.10;2.87;;;;;;;3.11;94.00;96667.06;5018343;28;20218;-84
2023/01/04 00:36:42;;;;;;;4.43;3.20;;;;;;;3.06;93.63;96666.44;5007119;28;20195;-84
2023/01/04 00:39:09;;;;;;;3.30;2.93;;;;;;;3.08;94.07;96661.22;4997337;28;20228;-85
2023/01/04 00:41:43;;;;;;;3.63;2.83;;;;;;;3.05;93.48;96654.50;4973027;28;20193;-83
2023/01/04 00:44:10;;;;;;;4.13;3.20;;;;;;;3.03;93.58;96647.81;4999209;28;20644;-85
2023/01/04 00:46:36;;;;;;;5.53;3.23;;;;;;;2.97;93.54;96641.22;5003833;28;20192;-82
2023/01/04 00:49:01;;;;;;;5.37;3.37;;;;;;;2.96;93.34;96638.72;5004837;28;20211;-83
2023/01/04 00:51:28;;;;;;;4.97;3.10;;;;;;;2.95;93.25;96644.78;4993874;28;20659;-84
2023/01/04 00:53:53;;;;;;;4.37;3.50;;;;;;;2.92;93.19;96642.38;5011479;28;20203;-84
2023/01/04 00:56:19;;;;;;;5.27;3.30;;;;;;;2.95;92.42;96637.06;4989292;28;20556;-83
2023/01/04 00:58:44;;;;;;;4.37;3.23;;;;;;;2.91;92.69;96640.69;5000108;28;20277;-84
2023/01/04 01:01:09;;;;;;;3.77;3.07;;;;;;;2.92;93.28;96640.63;4997553;28;20214;-84
2023/01/04 01:03:35;;;;;;;3.63;2.87;;;;;;;2.82;93.63;96634.25;4989926;28;20181;-85
2023/01/04 01:06:01;;;;;;;3.50;3.07;;;;;;;2.92;92.75;96632.09;4983910;28;20217;-83
2023/01/04 01:08:27;;;;;;;6.70;3.00;;;;;;;2.85;92.87;96629.00;4997351;28;20692;-84
2023/01/04 01:10:53;;;;;;;2.80;2.60;;;;;;;2.83;93.18;96633.38;4991793;28;20263;-86
2023/01/04 01:13:19;;;;;;;4.80;2.90;;;;;;;2.88;92.29;96628.84;4988960;28;20218;-85
2023/01/04 01:15:45;;;;;;;3.97;2.63;;;;;;;2.88;92.56;96636.53;4990787;28;20714;-84
2023/01/04 01:18:10;;;;;;;4.43;3.10;;;;;;;2.93;92.68;96642.28;4997630;28;20207;-86
2023/01/04 01:20:41;;;;;;;3.80;2.60;;;;;;;2.92;92.42;96638.06;4992243;28;20198;-85
2023/01/04 01:23:06;;;;;;;2.90;2.60;;;;;;;2.87;91.96;96650.28;4983885;28;20188;-85
2023/01/04 01:25:35;;;;;;;5.03;2.67;;;;;;;2.75;92.06;96654.25;4980400;28;20686;-85
2023/01/04 01:28:00;;;;;;;3.73;2.10;;;;;;;2.77;92.05;96649.06;4985230;28;20243;-86
2023/01/04 01:30:25;;;;;;;4.20;2.23;;;;;;;2.79;91.97;96647.25;5005822;28;20217;-83
2023/01/04 01:32:51;;;;;;;5.07;2.77;;;;;;;2.72;91.42;96641.56;4989733;28;20221;-85
2023/01/04 01:35:16;;;;;;;5.07;2.60;;;;;;;2.69;91.40;96646.84;4995016;28;20655;-86
2023/01/04 01:37:41;;;;;;;2.80;2.13;;;;;;;2.72;91.97;96648.44;5008792;28;20241;-83
2023/01/04 01:40:07;;;;;;;3.07;2.00;;;;;;;2.70;92.05;96648.50;5002002;28;20190;-86
2023/01/04 01:42:32;;;;;;;2.67;2.20;;;;;;;2.72;92.07;96648.44;5012558;28;20182;-85
2023/01/04 01:45:23;;;;;;;3.43;2.30;;;;;;;2.76;92.37;96647.41;5009614;28;20183;-83
2023/01/04 01:47:49;;;;;;;3.63;1.77;;;;;;;2.70;91.98;96652.81;4997254;28;20215;-84
2023/01/04 01:50:25;;;;;;;2.93;2.23;;;;;;;2.74;92.48;96644.06;5011859;28;20183;-86
2023/01/04 01:52:52;;;;;;;2.57;2.00;;;;;;;2.72;92.45;96645.88;4994835;28;20688;-85
2023/01/04 01:55:18;;;;;;;2.80;2.27;;;;;;;2.68;92.91;96641.81;5001178;28;20185;-86
2023/01/04 01:57:44;;;;;;;2.30;1.97;;;;;;;2.75;92.46;96649.13;5011019;28;20394;-84
2023/01/04 02:00:14;;;;;;;3.17;2.10;;;;;;;2.69;91.93;96640.91;5000303;28;20187;-84
2023/01/04 02:02:51;;;;;;;3.43;2.07;;;;;;;2.68;92.05;96642.63;5020105;28;20278;-84
2023/01/04 02:05:18;;;;;;;2.47;2.27;;;;;;;2.70;92.50;96642.56;5005850;28;20188;-84
2023/01/04 02:07:44;;;;;;;3.47;2.10;;;;;;;2.61;93.04;96633.56;5001604;28;20214;-85
2023/01/04 02:10:10;;;;;;;2.50;2.27;;;;;;;2.69;93.28;96628.06;4985430;28;20183;-84
2023/01/04 02:12:35;;;;;;;3.80;2.47;;;;;;;2.64;93.14;96617.19;5010028;28;20319;-85
2023/01/04 02:15:01;;;;;;;3.33;2.03;;;;;;;2.73;93.04;96622.69;5003624;28;20235;-86
2023/01/04 02:18:05;;;;;;;1.70;1.60;;;;;;;2.81;92.92;96614.66;4999990;28;20363;-84
2023/01/04 02:20:43;;;;;;;1.90;1.40;;;;;;;2.83;92.68;96607.72;4948638;29;20188;-84
2023/01/04 02:23:27;;;;;;;2.57;1.73;;;;;;;2.88;92.86;96602.34;4953172;29;20639;-85
2023/01/04 02:26:29;;;;;;;2.73;1.80;;;;;;;3.03;92.19;96599.88;4939165;29;20302;-85
2023/01/04 02:29:12;;;;;;;2.77;1.87;;;;;;;3.08;91.41;96605.59;4941813;29;20259;-85
2023/01/04 02:31:44;;;;;;;4.30;1.80;;;;;;;3.08;91.26;96605.59;4956820;29;20241;-85
2023/01/04 02:34:18;;;;;;;2.60;1.50;;;;;;;3.15;91.60;96603.56;4926791;29;20221;-84
2023/01/04 02:36:49;;;;;;;1.50;1.40;;;;;;;3.17;90.74;96604.31;4957002;29;20201;-85
2023/01/04 02:39:28;;;;;;;2.33;1.37;;;;;;;3.24;91.95;96599.69;4946794;29;20280;-85
2023/01/04 02:41:59;;;;;;;2.67;1.60;;;;;;;3.27;91.54;96594.41;4951189;29;20197;-85
2023/01/04 02:44:53;;;;;;;2.50;1.60;;;;;;;3.31;91.20;96583.09;4963310;29;20228;-84
2023/01/04 02:50:30;;;;;;;1.70;1.57;;;;;;;3.23;90.90;96578.34;4937959;29;20213;-85
2023/01/04 02:53:22;;;;;;;2.37;1.80;;;;;;;3.18;91.09;96567.50;4935420;29;20221;-84
2023/01/04 02:56:34;;;;;;;4.50;1.80;;;;;;;3.10;91.12;96567.03;5012006;28;20224;-86
2023/01/04 02:59:04;;;;;;;2.23;1.90;;;;;;;3.00;90.79;96566.66;5023423;28;20207;-86
2023/01/04 03:07:53;;;;;;;2.27;1.90;;;;;;;2.97;92.29;96569.38;5014473;28;20286;-83
2023/01/04 03:10:38;;;;;;;3.70;2.17;;;;;;;3.03;92.39;96570.81;5002534;28;20276;-85
2023/01/04 03:13:12;;;;;;;2.50;2.17;;;;;;;3.05;92.33;96562.13;4995542;28;20267;-85
2023/01/04 03:15:40;;;;;;;3.40;2.13;;;;;;;3.06;92.61;96568.09;4987224;28;20192;-86
2023/01/04 03:18:14;;;;;;;2.60;2.03;;;;;;;3.09;92.60;96566.22;4991555;28;20219;-86
2023/01/04 03:20:40;;;;;;;3.37;2.27;;;;;;;3.04;92.13;96575.03;4994262;28;20197;-85
2023/01/04 03:37:15;;;;;;;2.87;2.47;;;;;;;2.96;92.48;96554.06;5009292;28;20329;-86
2023/01/04 03:48:46;;;;;;;4.23;2.50;;;;;;;3.04;91.36;96542.50;5007527;28;20206;-84
2023/01/04 03:51:24;;;;;;;3.27;2.53;;;;;;;3.05;91.70;96546.72;4987234;28;20195;-85
2023/01/04 03:53:59;;;;;;;3.30;2.57;;;;;;;3.10;91.25;96538.81;4988078;28;20247;-86
2023/01/04 03:56:25;;;;;;;3.77;2.70;;;;;;;3.04;91.69;96534.81;5010094;28;20186;-85
2023/01/04 03:58:51;;;;;;;3.17;2.50;;;;;;;3.01;91.11;96536.72;4999161;28;20217;-86
2023/01/04 04:01:18;;;;;;;2.97;2.67;;;;;;;3.03;90.83;96538.28;4998862;28;20219;-84
2023/01/04 04:09:11;;;;;;;3.57;2.17;;;;;;;3.14;91.18;96535.16;4998442;28;20238;-84
2023/01/04 04:11:37;;;;;;;4.33;2.23;;;;;;;3.17;91.11;96542.69;4988510;28;20195;-84
2023/01/04 04:14:02;;;;;;;3.30;1.90;;;;;;;3.15;90.70;96526.56;4994439;28;20710;-86
2023/01/04 04:16:27;;;;;;;3.13;2.43;;;;;;;3.17;91.32;96527.31;5014037;28;20191;-85
2023/01/04 04:18:53;;;;;;;2.70;1.93;;;;;;;3.25;90.86;96526.91;4995581;28;20231;-84
2023/01/04 04:21:18;;;;;;;2.40;1.87;;;;;;;3.24;90.13;96513.25;4989149;28;20277;-85
2023/01/04 04:23:43;;;;;;;2.00;1.80;;;;;;;3.30;90.40;96509.53;5000776;28;20188;-87
2023/01/04 04:26:09;;;;;;;2.27;2.07;;;;;;;3.29;90.46;96510.47;5004830;28;20212;-84
2023/01/04 04:28:34;;;;;;;2.13;1.80;;;;;;;3.38;90.37;96507.41;5007658;28;20221;-87
2023/01/04 04:31:00;;;;;;;2.57;1.90;;;;;;;3.41;89.94;96502.94;4990101;28;20247;-85
2023/01/04 04:33:25;;;;;;;2.00;1.87;;;;;;;3.47;89.74;96506.09;5014810;28;21087;-84
2023/01/04 04:35:52;;;;;;;2.03;1.37;;;;;;;3.48;89.31;96500.88;4989357;28;20250;-84
2023/01/04 04:38:17;;;;;;;2.17;1.30;;;;;;;3.51;89.47;96499.88;5005739;28;20207;-83
2023/01/04 04:43:26;;;;;;;1.47;1.30;;;;;;;3.56;89.38;96491.03;5032936;28;20176;-82
2023/01/04 04:45:52;;;;;;;1.57;1.20;;;;;;;3.67;88.55;96498.16;5012371;28;20191;-83
2023/01/04 04:48:17;;;;;;;3.97;1.60;;;;;;;3.69;88.19;96496.31;5031017;28;20215;-82
2023/01/04 04:50:42;;;;;;;3.30;1.60;;;;;;;3.65;88.53;96487.97;5019053;28;20183;-83
2023/01/04 04:53:07;;;;;;;3.53;1.60;;;;;;;3.61;88.94;96480.50;4997149;28;20223;-84
2023/01/04 04:55:33;;;;;;;1.93;1.53;;;;;;;3.64;88.31;96488.88;4986385;28;20196;-86
2023/01/04 04:57:58;;;;;;;2.00;1.80;;;;;;;3.61;88.75;96478.75;5002866;28;20206;-84
2023/01/04 05:00:23;;;;;;;1.83;1.53;;;;;;;3.57;88.80;96476.44;4993054;28;20566;-84
2023/01/04 05:02:49;;;;;;;2.30;1.50;;;;;;;3.58;90.18;96478.09;5004532;28;20777;-85
2023/01/04 05:05:14;;;;;;;4.27;1.60;;;;;;;3.50;91.37;96475.94;5007968;28;20191;-85
2023/01/04 05:07:39;;;;;;;1.53;1.43;;;;;;;3.55;90.89;96479.09;4994762;28;20242;-82
2023/01/04 05:10:05;;;;;;;2.00;1.37;;;;;;;3.54;91.17;96477.44;4981100;28;20203;-84
2023/01/04 05:15:14;;;;;;;3.00;1.33;;;;;;;3.57;90.50;96469.56;5002727;28;20183;-85
2023/01/04 05:17:40;;;;;;;1.40;1.23;;;;;;;3.59;90.33;96474.63;4993918;28;20206;-84
2023/01/04 05:20:05;;;;;;;2.27;1.47;;;;;;;3.61;90.06;96486.47;4983359;28;20721;-85
2023/01/04 05:22:31;;;;;;;1.97;1.40;;;;;;;3.73;89.34;96479.03;5004884;28;20277;-83
2023/01/04 05:24:56;;;;;;;1.50;1.30;;;;;;;3.69;89.22;96480.91;4986111;28;20580;-83
2023/01/04 05:27:21;;;;;;;1.30;1.00;;;;;;;3.80;88.56;96478.59;5004476;28;20222;-85
2023/01/04 05:32:31;;;;;;;2.73;1.30;;;;;;;3.93;87.24;96483.91;4997378;28;20218;-83
2023/01/04 05:34:56;;;;;;;2.40;1.20;;;;;;;3.98;87.26;96476.78;4992612;28;20365;-83
2023/01/04 05:37:21;;;;;;;4.87;1.10;;;;;;;3.93;86.88;96469.31;4988110;28;20248;-84
2023/01/04 05:39:46;;;;;;;1.47;1.10;;;;;;;3.98;86.43;96474.19;4982697;28;20662;-83
2023/01/04 05:42:24;;;;;;;1.63;1.53;;;;;;;4.06;86.33;96466.03;4977957;28;20187;-84
2023/01/04 05:44:50;;;;;;;1.07;1.00;;;;;;;3.97;85.61;96464.81;4997813;28;20187;-83
2023/01/04 05:47:15;;;;;;;1.87;1.07;;;;;;;4.07;85.62;96460.00;5001764;28;20252;-84
2023/01/04 05:49:40;;;;;;;1.20;1.10;;;;;;;3.93;85.56;96459.03;4995155;28;20704;-84
2023/01/04 05:52:06;;;;;;;1.77;1.30;;;;;;;4.13;85.23;96464.78;4992357;28;20226;-83
2023/01/04 05:54:31;;;;;;;3.10;1.20;;;;;;;4.01;85.33;96455.22;4986191;28;20662;-83
2023/01/04 05:56:56;;;;;;;1.50;1.07;;;;;;;4.10;85.80;96460.66;4987152;28;20232;-84
2023/01/04 05:59:21;;;;;;;3.00;2.10;;;;;;;4.09;85.88;96463.31;5009838;28;20252;-84
2023/01/04 06:01:47;;;;;;;1.53;1.43;;;;;;;4.03;86.36;96464.47;4988769;28;20193;-83
2023/01/04 06:04:12;;;;;;;4.30;1.60;;;;;;;4.15;86.15;96468.94;4987448;28;20206;-82
2023/01/04 06:06:37;;;;;;;1.87;1.73;;;;;;;4.08;85.89;96466.81;4986246;28;20241;-83
2023/01/04 06:09:03;;;;;;;1.57;1.40;;;;;;;4.12;86.20;96452.84;4978940;28;20228;-83
2023/01/04 06:11:28;;;;;;;1.70;1.37;;;;;;;4.10;86.15;96452.13;4977505;28;20202;-82
2023/01/04 06:13:53;;;;;;;1.43;1.33;;;;;;;4.15;85.76;96455.25;4980066;28;20196;-83
2023/01/04 06:16:19;;;;;;;2.20;1.00;;;;;;;4.13;86.23;96457.91;5000924;28;20186;-83
2023/01/04 06:18:44;;;;;;;1.43;1.20;;;;;;;4.22;86.21;96459.13;4982577;28;20967;-84
2023/01/04 06:21:09;;;;;;;1.60;1.50;;;;;;;4.20;85.52;96456.66;4993384;28;20196;-83
2023/01/04 06:23:34;;;;;;;1.43;1.30;;;;;;;4.21;85.92;96458.31;4979872;28;20191;-86
2023/01/04 06:26:00;;;;;;;1.33;1.23;;;;;;;4.28;85.40;96458.78;4978556;28;20184;-85
2023/01/04 06:28:25;;;;;;;2.37;1.30;;;;;;;4.38;85.53;96459.09;5003178;28;20614;-84
2023/01/04 06:30:50;;;;;;;5.10;1.60;;;;;;;4.37;85.88;96453.13;4999217;28;20192;-86
2023/01/04 06:33:16;;;;;;;1.03;1.00;;;;;;;4.49;85.62;96461.88;4992176;28;20218;-85
2023/01/04 06:35:41;;;;;;;1.70;1.10;;;;;;;4.40;85.83;96452.13;4976370;28;20328;-86
2023/01/04 06:38:06;;;;;;;1.43;1.33;;;;;;;4.53;85.08;96458.22;5002766;28;20639;-86
2023/01/04 06:40:31;;;;;;;1.93;1.23;;;;;;;4.54;85.58;96447.03;5010913;28;20205;-85
2023/01/04 06:42:57;;;;;;;1.50;1.40;;;;;;;4.60;85.27;96453.56;5000548;28;20191;-83
2023/01/04 06:45:22;;;;;;;1.60;1.20;;;;;;;4.49;85.65;96451.59;4997670;28;20241;-83
2023/01/04 06:47:47;;;;;;;2.17;1.10;;;;;;;4.57;85.43;96440.84;5002107;28;20211;-83
2023/01/04 06:50:13;;;;;;;2.23;1.30;;;;;;;4.58;85.37;96445.91;4995945;28;20191;-83
2023/01/04 06:52:38;;;;;;;3.47;0.90;;;;;;;4.58;85.86;96439.94;4981692;28;20216;-82
2023/01/04 06:55:05;;;;;;;2.03;1.73;;;;;;;4.59;86.34;96457.84;5007774;28;20183;-85
2023/01/04 06:57:31;;;;;;;1.53;1.43;;;;;;;4.54;86.52;96450.41;5006084;28;20682;-84
2023/01/04 06:59:56;;;;;;;2.47;1.30;;;;;;;4.61;86.93;96445.75;5000006;28;20202;-82
2023/01/04 07:02:21;;;;;;;2.13;1.20;;;;;;;4.63;86.72;96450.81;5010899;28;20194;-84
2023/01/04 07:04:46;;;;;;;4.20;1.37;;;;;;;4.69;86.69;96443.56;4986481;28;20211;-85
2023/01/04 07:07:12;;;;;;;2.03;1.10;;;;;;;4.60;87.10;96449.25;4982435;28;20214;-82
2023/01/04 07:09:37;;;;;;;1.43;1.00;;;;;;;4.70;87.39;96452.09;4990690;28;20202;-85
2023/01/04 07:12:03;;;;;;;3.13;1.33;;;;;;;4.67;87.68;96445.38;4991704;28;20246;-85
2023/01/04 07:14:28;;;;;;;2.93;1.00;;;;;;;4.64;88.12;96458.44;4984503;28;20200;-83
2023/01/04 07:16:54;;;;;;;3.03;1.20;;;;;;;4.62;88.40;96455.13;5013315;28;20209;-84
2023/01/04 07:19:19;;;;;;;1.87;1.37;;;;;;;4.76;87.80;96444.00;4996645;28;20199;-85
2023/01/04 07:21:44;;;;;;;2.47;1.40;;;;;;;4.70;87.95;96431.53;5008607;28;20184;-84
2023/01/04 07:24:10;;;;;;;2.90;1.17;;;;;;;4.79;87.50;96428.41;5005414;28;20559;-83
2023/01/04 07:26:35;;;;;;;1.70;0.83;;;;;;;4.80;86.30;96428.31;5000173;28;20187;-84
2023/01/04 07:29:13;;;;;;;2.60;0.70;;;;;;;4.88;83.04;96434.75;4999113;28;20262;-84
2023/01/04 07:31:38;;;;;;;2.27;1.23;;;;;;;5.20;80.10;96428.47;4993922;28;20194;-84
2023/01/04 07:34:03;;;;;;;0.67;0.63;;;;;;;5.28;79.54;96421.13;5002700;28;20607;-86
2023/01/04 07:36:29;;;;;;;2.17;0.97;;;;;;;5.45;78.16;96424.41;5001130;28;20209;-83
2023/01/04 07:38:54;;;;;;;6.17;3.37;;;;;;;5.49;78.52;96423.31;5013830;28;20226;-85
2023/01/04 07:41:19;;;;;;;1.93;0.60;;;;;;;5.54;78.24;96431.56;5002783;28;20191;-84
2023/01/04 07:43:45;;;;;;;0.70;0.40;;;;;;;5.54;77.50;96432.38;4998330;28;20195;-83
2023/01/04 07:46:10;;;;;;;1.20;0.50;;;;;;;5.75;76.72;96419.94;4993520;28;20194;-84
2023/01/04 07:48:36;;;;;;;0.60;0.60;;;;;;;5.88;77.05;96428.53;4996213;28;20246;-82
2023/01/04 07:51:01;;;;;;;1.50;1.40;;;;;;;5.87;76.72;96414.00;4982151;28;20195;-82
2023/01/04 07:53:27;;;;;;;2.10;1.10;;;;;;;5.74;77.38;96417.44;4985629;28;20263;-81
2023/01/04 07:55:56;;;;;;;1.23;0.60;;;;;;;5.72;77.34;96406.41;4987842;28;20199;-83
2023/01/04 07:58:21;;;;;;;0.53;0.50;;;;;;;5.79;76.78;96410.25;5003790;28;20204;-83
2023/01/04 08:00:46;;;;;;;1.63;0.67;;;;;;;5.98;76.52;96408.16;4987385;28;20209;-84
2023/01/04 08:03:12;;;;;;;1.10;0.70;;;;;;;5.97;76.70;96398.78;4989107;28;20183;-85
2023/01/04 08:05:37;;;;;;;0.60;0.60;;;;;;;5.95;76.97;96404.06;4994331;28;20192;-82
2023/01/04 08:08:02;;;;;;;0.50;0.50;;;;;;;5.73;76.77;96403.72;4997813;28;20218;-85
2023/01/04 08:10:28;;;;;;;2.47;0.40;;;;;;;5.92;76.70;96395.69;4990230;28;20188;-83
2023/01/04 08:12:53;;;;;;;0.73;0.40;;;;;;;5.94;76.95;96399.00;4989828;28;20214;-83
2023/01/04 08:15:19;;;;;;;1.70;0.70;;;;;;;6.03;77.66;96403.56;4997747;28;20248;-84
2023/01/04 08:17:45;;;;;;;1.87;0.60;;;;;;;5.88;77.97;96397.59;5000009;28;20235;-86
2023/01/04 08:20:10;;;;;;;1.30;0.47;;;;;;;6.13;76.51;96391.72;5011078;28;20191;-85
2023/01/04 08:22:35;;;;;;;1.10;0.80;;;;;;;6.12;76.98;96402.13;5014309;28;20654;-85
2023/01/04 08:25:01;;;;;;;3.10;0.70;;;;;;;6.04;77.31;96383.75;4998676;28;20197;-85
2023/01/04 08:27:26;;;;;;;0.97;0.77;;;;;;;6.06;77.26;96367.25;5012378;28;20220;-83
2023/01/04 08:29:51;;;;;;;1.10;0.60;;;;;;;6.18;77.26;96369.03;5001964;28;20191;-83
2023/01/04 08:32:17;;;;;;;0.50;0.40;;;;;;;6.13;77.77;96368.50;4983655;28;20275;-85
2023/01/04 08:34:42;;;;;;;2.00;0.60;;;;;;;6.23;77.29;96368.72;4984556;28;20663;-86
2023/01/04 08:37:07;;;;;;;1.37;0.77;;;;;;;6.17;77.75;96371.69;4995308;28;20195;-86
2023/01/04 08:39:34;;;;;;;1.43;0.60;;;;;;;6.36;77.10;96363.56;4986652;28;20179;-85
2023/01/04 08:42:00;;;;;;;0.67;0.50;;;;;;;6.19;77.56;96367.28;4972859;28;20184;-84
2023/01/04 08:44:26;;;;;;;1.57;0.60;;;;;;;6.38;76.90;96362.56;5000750;28;20195;-85
2023/01/04 08:46:52;;;;;;;1.37;0.60;;;;;;;6.32;77.78;96349.25;4987034;28;20187;-85
2023/01/04 08:49:18;;;;;;;0.90;0.50;;;;;;;6.46;77.68;96359.47;4994098;28;20194;-86
2023/01/04 08:51:44;;;;;;;1.97;0.60;;;;;;;6.48;77.97;96362.78;5010049;28;20184;-86
2023/01/04 08:54:09;;;;;;;2.10;0.60;;;;;;;6.48;78.04;96361.03;4986963;28;20189;-87
2023/01/04 08:56:34;;;;;;;2.33;0.60;;;;;;;6.60;77.70;96355.97;5004039;28;20228;-85
2023/01/04 08:59:00;;;;;;;2.43;1.00;;;;;;;6.70;77.74;96354.41;4980006;28;20271;-85
2023/01/04 09:01:25;;;;;;;2.87;0.60;;;;;;;6.67;77.72;96358.03;4989409;28;20194;-85
2023/01/04 09:03:51;;;;;;;2.20;0.70;;;;;;;6.85;77.48;96353.38;4995340;28;20194;-84
2023/01/04 09:06:16;;;;;;;1.33;0.63;;;;;;;6.96;77.20;96358.59;4994688;28;20678;-85
2023/01/04 09:08:43;;;;;;;1.40;0.70;;;;;;;6.96;77.35;96366.34;4997760;28;20210;-84
2023/01/04 09:11:13;;;;;;;1.90;0.53;;;;;;;7.08;76.56;96356.94;5003205;28;20474;-85
2023/01/04 09:13:39;;;;;;;0.67;0.50;;;;;;;7.20;76.89;96365.59;4993429;28;20294;-82
2023/01/04 09:16:11;;;;;;;0.47;0.47;;;;;;;7.14;77.12;96372.00;4993335;28;20222;-85
2023/01/04 09:18:37;;;;;;;0.93;0.50;;;;;;;7.28;76.90;96373.63;5003972;28;20210;-85
2023/01/04 09:21:07;;;;;;;0.60;0.47;;;;;;;7.23;76.78;96366.19;5004377;28;20270;-85
2023/01/04 09:23:33;;;;;;;2.30;0.67;;;;;;;7.17;77.17;96371.81;4993929;28;20203;-85
2023/01/04 09:25:59;;;;;;;1.60;0.60;;;;;;;7.27;76.76;96382.34;4978818;28;20234;-84
2023/01/04 09:28:24;;;;;;;0.80;0.50;;;;;;;7.38;76.55;96378.06;4983231;28;20222;-84
2023/01/04 09:30:49;;;;;;;4.50;1.13;;;;;;;7.32;76.55;96377.66;4981982;28;20619;-85
2023/01/04 09:33:14;;;;;;;0.80;0.80;;;;;;;7.62;75.78;96366.91;4991540;28;20208;-85
2023/01/04 09:35:40;;;;;;;1.00;0.60;;;;;;;7.57;76.07;96369.81;4981295;28;20187;-84
2023/01/04 09:38:05;;;;;;;0.80;0.73;;;;;;;7.41;76.38;96379.59;5003853;28;20258;-83
2023/01/04 09:40:42;;;;;;;0.63;0.40;;;;;;;7.38;76.52;96378.06;4993558;28;20618;-84
2023/01/04 09:43:15;;;;;;;2.00;0.80;;;;;;;7.49;76.29;96382.47;4990578;28;20249;-85
2023/01/04 09:45:40;;;;;;;0.63;0.50;;;;;;;7.66;75.73;96379.50;4999218;28;20186;-85
2023/01/04 09:48:10;;;;;;;1.57;0.70;;;;;;;7.66;76.24;96366.56;5000182;28;20211;-85
2023/01/04 09:50:46;;;;;;;2.73;0.70;;;;;;;7.48;77.00;96370.47;4996816;28;20187;-85
2023/01/04 09:53:19;;;;;;;1.50;0.80;;;;;;;7.77;76.43;96365.81;4987254;28;20212;-84
2023/01/04 09:55:48;;;;;;;6.60;2.10;;;;;;;7.60;78.20;96371.38;4987102;28;20188;-86
2023/01/04 09:58:20;;;;;;;1.80;1.20;;;;;;;7.66;78.79;96368.34;4980198;28;20231;-83
2023/01/04 10:00:50;;;;;;;1.57;1.20;;;;;;;7.61;79.80;96375.63;4997193;28;20750;-84
2023/01/04 10:03:29;;;;;;;2.70;1.13;;;;;;;7.88;79.30;96365.06;4996517;28;20194;-83
2023/01/04 10:05:55;;;;;;;1.63;1.00;;;;;;;7.92;79.41;96358.72;4990302;28;20647;-84
2023/01/04 10:08:20;;;;;;;3.23;1.30;;;;;;;8.02;78.63;96359.69;4983355;28;20223;-83
2023/01/04 10:10:54;;;;;;;1.10;0.60;;;;;;;8.11;78.33;96353.84;5001258;28;20184;-83
2023/01/04 10:13:25;;;;;;;1.30;0.70;;;;;;;7.94;79.55;96354.25;5005381;28;20206;-82
2023/01/04 10:16:28;;;;;;;1.67;0.70;;;;;;;7.94;79.55;96351.66;5012783;28;20210;-85
2023/01/04 10:19:20;;;;;;;1.63;0.60;;;;;;;8.21;78.61;96347.03;4942436;29;20228;-84
2023/01/04 10:21:50;;;;;;;1.03;0.70;;;;;;;7.98;78.67;96352.28;4967190;29;20556;-83
2023/01/04 10:24:21;;;;;;;1.10;0.70;;;;;;;7.91;79.31;96357.06;4961107;29;20193;-84
2023/01/04 10:26:48;;;;;;;0.93;0.63;;;;;;;8.09;78.92;96344.53;4930486;29;20193;-85
2023/01/04 10:29:26;;;;;;;1.90;0.67;;;;;;;8.33;78.22;96337.56;4949047;29;20277;-85
2023/01/04 10:31:55;;;;;;;2.30;0.80;;;;;;;8.23;78.56;96331.44;4928570;29;20208;-83
2023/01/04 10:34:24;;;;;;;0.70;0.70;;;;;;;8.41;78.21;96300.78;4919809;29;20708;-83
2023/01/04 10:36:52;;;;;;;2.10;0.70;;;;;;;8.45;78.52;96302.19;4927876;28;20257;-85
2023/01/04 10:39:21;;;;;;;1.13;0.73;;;;;;;8.39;78.50;96306.09;4944793;29;20201;-84
2023/01/04 10:42:32;;;;;;;2.37;0.90;;;;;;;8.49;77.84;96311.38;4941400;29;20217;-84
2023/01/04 10:45:06;;;;;;;2.83;0.60;;;;;;;8.31;78.68;96298.03;4933704;28;20262;-82
2023/01/04 10:48:09;;;;;;;1.97;0.80;;;;;;;8.67;77.65;96293.63;4954421;28;20319;-85
2023/01/04 10:50:53;;;;;;;1.47;0.73;;;;;;;8.35;77.98;96293.47;4923599;29;20195;-84
2023/01/04 10:53:29;;;;;;;2.17;1.00;;;;;;;8.39;78.28;96285.38;4905716;28;20265;-82
2023/01/04 10:56:07;;;;;;;2.20;1.20;;;;;;;8.56;78.05;96289.25;4985831;28;20191;-85
2023/01/04 10:58:45;;;;;;;4.07;1.73;;;;;;;8.49;78.14;96286.31;4981379;28;20271;-85
2023/01/04 11:01:32;;;;;;;6.27;3.23;;;;;;;8.69;77.12;96289.97;5001825;28;20214;-84
2023/01/04 11:04:05;;;;;;;3.77;2.80;;;;;;;8.68;77.07;96300.47;4994786;28;20234;-85
2023/01/04 11:06:35;;;;;;;0.77;0.77;;;;;;;8.66;77.42;96282.44;4980101;28;20191;-85
2023/01/04 11:09:03;;;;;;;3.30;1.60;;;;;;;8.54;78.11;96287.72;4991684;28;20219;-85
2023/01/04 11:11:33;;;;;;;0.90;0.70;;;;;;;8.66;78.12;96287.63;4989528;28;20663;-83
2023/01/04 11:13:59;;;;;;;1.10;0.80;;;;;;;8.74;77.84;96284.44;4985917;28;20235;-85
2023/01/04 11:16:24;;;;;;;1.60;0.70;;;;;;;8.61;78.24;96284.56;4994954;28;20194;-85
2023/01/04 11:18:50;;;;;;;1.90;1.17;;;;;;;8.69;78.67;96271.03;4986657;28;20215;-84
2023/01/04 11:21:18;;;;;;;3.03;2.13;;;;;;;8.59;79.33;96276.09;4985506;28;20241;-85
2023/01/04 11:23:44;;;;;;;1.80;1.20;;;;;;;8.62;79.92;96269.84;4991703;28;20770;-87
2023/01/04 11:26:17;;;;;;;1.60;1.20;;;;;;;8.64;79.36;96268.78;5002359;28;20176;-84
2023/01/04 11:28:53;;;;;;;2.83;2.50;;;;;;;8.64;79.03;96271.38;5009779;28;20201;-81
2023/01/04 11:31:27;;;;;;;9.87;9.07;;;;;;;8.59;79.88;96270.91;5024184;28;20404;-82
2023/01/04 11:34:00;;;;;;;22.50;20.80;;;;;;;8.87;79.09;96266.19;5011306;28;20232;-83
2023/01/04 11:36:38;;;;;;;2.77;2.10;;;;;;;8.78;78.75;96263.38;5030101;28;20203;-84
2023/01/04 11:39:23;;;;;;;2.50;2.30;;;;;;;8.85;78.86;96268.09;5013551;28;20224;-84
2023/01/04 11:41:57;;;;;;;2.07;1.30;;;;;;;8.84;79.17;96269.84;4994301;28;20194;-84
2023/01/04 11:44:22;;;;;;;3.50;1.20;;;;;;;8.79;79.57;96271.97;4987686;28;20666;-84
2023/01/04 11:47:05;;;;;;;4.13;1.90;;;;;;;8.85;80.70;96258.53;5000390;28;20192;-84
2023/01/04 11:49:35;;;;;;;6.07;2.80;;;;;;;8.89;78.67;96259.94;4998487;28;20278;-85
2023/01/04 11:52:00;;;;;;;4.23;2.30;;;;;;;8.70;79.02;96270.91;4990248;28;20226;-85
2023/01/04 11:54:26;;;;;;;7.20;3.80;;;;;;;8.49;80.63;96262.22;4982632;28;20664;-84
2023/01/04 11:57:07;;;;;;;12.20;4.43;;;;;;;8.51;79.99;96247.38;4973461;28;20271;-85
2023/01/04 11:59:33;;;;;;;8.57;3.83;;;;;;;8.66;79.52;96266.09;4995533;28;20199;-85
2023/01/04 12:02:18;;;;;;;9.93;3.87;;;;;;;8.53;80.48;96263.59;5002631;28;20183;-85
2023/01/04 12:04:44;;;;;;;4.73;2.00;;;;;;;8.59;82.29;96270.91;4985398;28;20197;-85
2023/01/04 12:07:29;;;;;;;0.70;0.60;;;;;;;8.68;86.24;96262.44;4983457;28;20685;-85
2023/01/04 12:09:55;;;;;;;1.33;1.10;;;;;;;8.99;85.62;96273.00;4988160;28;20317;-84
2023/01/04 12:12:22;;;;;;;1.37;0.60;;;;;;;9.19;84.09;96268.81;4994946;28;20766;-84
2023/01/04 12:14:48;;;;;;;0.83;0.50;;;;;;;9.26;84.10;96262.22;4994067;28;20214;-85
2023/01/04 12:17:23;;;;;;;1.80;0.57;;;;;;;9.38;83.70;96258.66;4990033;28;20203;-85
2023/01/04 12:19:52;;;;;;;1.87;0.53;;;;;;;9.50;82.98;96247.28;5001694;28;20666;-85
2023/01/04 12:22:39;;;;;;;0.73;0.60;;;;;;;9.59;82.46;96251.75;5009397;28;20190;-84
2023/01/04 12:25:08;;;;;;;0.40;0.40;;;;;;;9.58;82.98;96257.88;4990871;28;20184;-85
2023/01/04 12:27:34;;;;;;;0.73;0.50;;;;;;;9.54;83.10;96235.75;4973191;28;20208;-83
2023/01/04 12:30:01;;;;;;;0.90;0.60;;;;;;;9.65;82.78;96247.84;5003213;28;20190;-83
2023/01/04 12:32:27;;;;;;;1.60;0.70;;;;;;;9.66;82.55;96239.09;4992089;28;20683;-85
2023/01/04 12:34:53;;;;;;;1.63;0.67;;;;;;;9.48;83.32;96235.41;4993442;28;20188;-84